sensor_id;sensor_type;location;lat;lon;timestamp;P1;durP1;ratioP1;P2;durP2;ratioP2
50429;SDS011;36359;41.556;-8.418;2024-02-21T00:00:18;20.20;;;12.20;;
50429;SDS011;36359;41.556;-8.418;2024-02-21T00:02:44;19.30;;;12.07;;
50429;SDS011;36359;41.556;-8.418;2024-02-21T00:05:10;17.40;;;11.67;;
50429;SDS011;36359;41.556;-8.418;2024-02-21T00:07:36;28.90;;;17.85;;
50429;SDS011;36359;41.556;-8.418;2024-02-21T00:10:02;41.60;;;25.30;;
50429;SDS011;36359;41.556;-8.418;2024-02-21T00:12:28;45.90;;;28.17;;
50429;SDS011;36359;41.556;-8.418;2024-02-21T00:14:54;40.83;;;25.80;;
50429;SDS011;36359;41.556;-8.418;2024-02-21T00:17:19;36.97;;;23.93;;
50429;SDS011;36359;41.556;-8.418;2024-02-21T00:19:45;31.97;;;17.80;;
50429;SDS011;36359;41.556;-8.418;2024-02-21T00:22:11;23.90;;;15.27;;
50429;SDS011;36359;41.556;-8.418;2024-02-21T00:24:37;19.17;;;13.23;;
50429;SDS011;36359;41.556;-8.418;2024-02-21T00:27:02;20.60;;;13.90;;
50429;SDS011;36359;41.556;-8.418;2024-02-21T00:29:28;22.60;;;12.87;;
50429;SDS011;36359;41.556;-8.418;2024-02-21T00:31:54;23.33;;;14.37;;
50429;SDS011;36359;41.556;-8.418;2024-02-21T00:34:20;20.33;;;14.40;;
50429;SDS011;36359;41.556;-8.418;2024-02-21T00:39:14;21.73;;;13.53;;
50429;SDS011;36359;41.556;-8.418;2024-02-21T00:41:40;20.47;;;13.17;;
50429;SDS011;36359;41.556;-8.418;2024-02-21T00:44:06;19.93;;;12.63;;
50429;SDS011;36359;41.556;-8.418;2024-02-21T00:46:32;19.87;;;12.40;;
50429;SDS011;36359;41.556;-8.418;2024-02-21T00:48:57;19.45;;;11.32;;
50429;SDS011;36359;41.556;-8.418;2024-02-21T00:51:23;19.60;;;11.87;;
50429;SDS011;36359;41.556;-8.418;2024-02-21T00:53:49;24.40;;;13.37;;
50429;SDS011;36359;41.556;-8.418;2024-02-21T00:56:14;20.38;;;12.07;;
50429;SDS011;36359;41.556;-8.418;2024-02-21T00:58:41;19.83;;;12.00;;
50429;SDS011;36359;41.556;-8.418;2024-02-21T01:01:07;22.43;;;12.17;;
50429;SDS011;36359;41.556;-8.418;2024-02-21T01:03:33;19.03;;;12.10;;
50429;SDS011;36359;41.556;-8.418;2024-02-21T01:05:58;18.40;;;11.13;;
50429;SDS011;36359;41.556;-8.418;2024-02-21T01:08:24;18.57;;;10.90;;
50429;SDS011;36359;41.556;-8.418;2024-02-21T01:10:50;19.93;;;11.40;;
50429;SDS011;36359;41.556;-8.418;2024-02-21T01:13:15;17.47;;;11.20;;
50429;SDS011;36359;41.556;-8.418;2024-02-21T01:15:41;21.83;;;12.70;;
50429;SDS011;36359;41.556;-8.418;2024-02-21T01:18:07;17.93;;;11.13;;
50429;SDS011;36359;41.556;-8.418;2024-02-21T01:20:32;19.37;;;12.10;;
50429;SDS011;36359;41.556;-8.418;2024-02-21T01:22:58;18.80;;;11.80;;
50429;SDS011;36359;41.556;-8.418;2024-02-21T01:25:24;20.87;;;12.27;;
50429;SDS011;36359;41.556;-8.418;2024-02-21T01:27:49;19.53;;;12.67;;
50429;SDS011;36359;41.556;-8.418;2024-02-21T01:30:15;19.87;;;12.10;;
50429;SDS011;36359;41.556;-8.418;2024-02-21T01:32:41;21.43;;;13.50;;
50429;SDS011;36359;41.556;-8.418;2024-02-21T01:35:07;25.67;;;15.10;;
50429;SDS011;36359;41.556;-8.418;2024-02-21T01:37:33;35.53;;;18.90;;
50429;SDS011;36359;41.556;-8.418;2024-02-21T01:39:59;44.17;;;25.63;;
50429;SDS011;36359;41.556;-8.418;2024-02-21T01:42:24;35.77;;;23.37;;
50429;SDS011;36359;41.556;-8.418;2024-02-21T01:44:50;35.83;;;23.40;;
50429;SDS011;36359;41.556;-8.418;2024-02-21T01:47:16;36.30;;;23.23;;
50429;SDS011;36359;41.556;-8.418;2024-02-21T01:49:42;37.17;;;21.30;;
50429;SDS011;36359;41.556;-8.418;2024-02-21T01:52:08;27.40;;;16.30;;
50429;SDS011;36359;41.556;-8.418;2024-02-21T01:54:37;24.10;;;13.50;;
50429;SDS011;36359;41.556;-8.418;2024-02-21T01:57:03;23.67;;;13.27;;
50429;SDS011;36359;41.556;-8.418;2024-02-21T01:59:29;20.93;;;12.93;;
50429;SDS011;36359;41.556;-8.418;2024-02-21T02:01:55;22.97;;;13.80;;
50429;SDS011;36359;41.556;-8.418;2024-02-21T02:04:22;22.23;;;12.77;;
50429;SDS011;36359;41.556;-8.418;2024-02-21T02:06:48;21.80;;;13.23;;
50429;SDS011;36359;41.556;-8.418;2024-02-21T02:09:15;19.73;;;13.13;;
50429;SDS011;36359;41.556;-8.418;2024-02-21T02:11:42;20.67;;;12.50;;
50429;SDS011;36359;41.556;-8.418;2024-02-21T02:14:08;19.67;;;12.47;;
50429;SDS011;36359;41.556;-8.418;2024-02-21T02:16:34;18.67;;;12.30;;
50429;SDS011;36359;41.556;-8.418;2024-02-21T02:18:59;18.93;;;11.93;;
50429;SDS011;36359;41.556;-8.418;2024-02-21T02:21:35;21.30;;;11.13;;
50429;SDS011;36359;41.556;-8.418;2024-02-21T02:24:07;16.30;;;10.80;;
50429;SDS011;36359;41.556;-8.418;2024-02-21T02:26:33;17.40;;;10.30;;
50429;SDS011;36359;41.556;-8.418;2024-02-21T02:29:01;18.27;;;10.07;;
50429;SDS011;36359;41.556;-8.418;2024-02-21T02:31:27;19.20;;;9.60;;
50429;SDS011;36359;41.556;-8.418;2024-02-21T02:33:53;14.17;;;8.47;;
50429;SDS011;36359;41.556;-8.418;2024-02-21T02:36:18;12.47;;;7.97;;
50429;SDS011;36359;41.556;-8.418;2024-02-21T02:38:44;13.23;;;6.80;;
50429;SDS011;36359;41.556;-8.418;2024-02-21T02:41:10;12.67;;;6.97;;
50429;SDS011;36359;41.556;-8.418;2024-02-21T02:43:36;11.20;;;6.33;;
50429;SDS011;36359;41.556;-8.418;2024-02-21T02:46:04;12.43;;;6.87;;
50429;SDS011;36359;41.556;-8.418;2024-02-21T02:48:30;12.53;;;6.10;;
50429;SDS011;36359;41.556;-8.418;2024-02-21T02:50:55;12.43;;;6.43;;
50429;SDS011;36359;41.556;-8.418;2024-02-21T02:53:30;11.60;;;6.40;;
50429;SDS011;36359;41.556;-8.418;2024-02-21T02:55:55;11.07;;;6.20;;
50429;SDS011;36359;41.556;-8.418;2024-02-21T02:58:21;14.23;;;7.77;;
50429;SDS011;36359;41.556;-8.418;2024-02-21T03:00:47;14.13;;;8.43;;
50429;SDS011;36359;41.556;-8.418;2024-02-21T03:03:12;15.03;;;9.73;;
50429;SDS011;36359;41.556;-8.418;2024-02-21T03:05:38;18.40;;;11.20;;
50429;SDS011;36359;41.556;-8.418;2024-02-21T03:08:04;15.73;;;10.00;;
50429;SDS011;36359;41.556;-8.418;2024-02-21T03:10:32;17.23;;;9.90;;
50429;SDS011;36359;41.556;-8.418;2024-02-21T03:12:58;17.63;;;10.40;;
50429;SDS011;36359;41.556;-8.418;2024-02-21T03:15:24;15.87;;;10.10;;
50429;SDS011;36359;41.556;-8.418;2024-02-21T03:17:50;17.77;;;9.90;;
50429;SDS011;36359;41.556;-8.418;2024-02-21T03:20:16;17.77;;;10.77;;
50429;SDS011;36359;41.556;-8.418;2024-02-21T03:22:42;17.83;;;11.40;;
50429;SDS011;36359;41.556;-8.418;2024-02-21T03:25:08;17.37;;;12.23;;
50429;SDS011;36359;41.556;-8.418;2024-02-21T03:27:36;16.90;;;11.70;;
50429;SDS011;36359;41.556;-8.418;2024-02-21T03:30:01;19.30;;;11.23;;
50429;SDS011;36359;41.556;-8.418;2024-02-21T03:32:27;18.03;;;10.93;;
50429;SDS011;36359;41.556;-8.418;2024-02-21T03:34:54;15.90;;;10.13;;
50429;SDS011;36359;41.556;-8.418;2024-02-21T03:37:20;18.47;;;11.07;;
50429;SDS011;36359;41.556;-8.418;2024-02-21T03:39:45;17.73;;;10.33;;
50429;SDS011;36359;41.556;-8.418;2024-02-21T03:42:11;18.30;;;11.03;;
50429;SDS011;36359;41.556;-8.418;2024-02-21T03:44:37;17.73;;;10.70;;
50429;SDS011;36359;41.556;-8.418;2024-02-21T03:47:03;18.27;;;10.07;;
50429;SDS011;36359;41.556;-8.418;2024-02-21T03:49:29;16.10;;;9.57;;
50429;SDS011;36359;41.556;-8.418;2024-02-21T03:51:54;16.97;;;9.70;;
50429;SDS011;36359;41.556;-8.418;2024-02-21T03:54:20;12.73;;;7.40;;
50429;SDS011;36359;41.556;-8.418;2024-02-21T03:56:46;12.63;;;8.37;;
50429;SDS011;36359;41.556;-8.418;2024-02-21T03:59:14;13.07;;;8.13;;
50429;SDS011;36359;41.556;-8.418;2024-02-21T04:01:40;11.40;;;7.33;;
50429;SDS011;36359;41.556;-8.418;2024-02-21T04:04:06;22.57;;;14.63;;
50429;SDS011;36359;41.556;-8.418;2024-02-21T04:06:32;28.43;;;18.17;;
50429;SDS011;36359;41.556;-8.418;2024-02-21T04:08:57;39.90;;;24.53;;
50429;SDS011;36359;41.556;-8.418;2024-02-21T04:11:23;42.57;;;26.07;;
50429;SDS011;36359;41.556;-8.418;2024-02-21T04:13:49;45.10;;;27.07;;
50429;SDS011;36359;41.556;-8.418;2024-02-21T04:16:16;43.77;;;27.00;;
50429;SDS011;36359;41.556;-8.418;2024-02-21T04:18:42;43.03;;;29.00;;
50429;SDS011;36359;41.556;-8.418;2024-02-21T04:21:09;40.27;;;26.77;;
50429;SDS011;36359;41.556;-8.418;2024-02-21T04:23:35;43.43;;;28.27;;
50429;SDS011;36359;41.556;-8.418;2024-02-21T04:26:01;45.33;;;28.90;;
50429;SDS011;36359;41.556;-8.418;2024-02-21T04:28:26;42.80;;;31.00;;
50429;SDS011;36359;41.556;-8.418;2024-02-21T04:30:52;40.67;;;28.70;;
50429;SDS011;36359;41.556;-8.418;2024-02-21T04:33:18;40.50;;;27.67;;
50429;SDS011;36359;41.556;-8.418;2024-02-21T04:35:43;45.27;;;28.53;;
50429;SDS011;36359;41.556;-8.418;2024-02-21T04:38:09;44.27;;;29.53;;
50429;SDS011;36359;41.556;-8.418;2024-02-21T04:40:35;41.70;;;26.30;;
50429;SDS011;36359;41.556;-8.418;2024-02-21T04:43:01;42.93;;;27.53;;
50429;SDS011;36359;41.556;-8.418;2024-02-21T04:45:26;43.23;;;26.97;;
50429;SDS011;36359;41.556;-8.418;2024-02-21T04:47:52;35.03;;;23.60;;
50429;SDS011;36359;41.556;-8.418;2024-02-21T04:50:18;38.83;;;26.20;;
50429;SDS011;36359;41.556;-8.418;2024-02-21T04:52:43;39.30;;;26.03;;
50429;SDS011;36359;41.556;-8.418;2024-02-21T04:55:09;36.70;;;23.47;;
50429;SDS011;36359;41.556;-8.418;2024-02-21T04:57:35;31.37;;;20.27;;
50429;SDS011;36359;41.556;-8.418;2024-02-21T05:00:01;37.57;;;21.20;;
50429;SDS011;36359;41.556;-8.418;2024-02-21T05:02:26;32.60;;;18.80;;
50429;SDS011;36359;41.556;-8.418;2024-02-21T05:04:52;31.47;;;17.87;;
50429;SDS011;36359;41.556;-8.418;2024-02-21T05:07:18;24.93;;;15.87;;
50429;SDS011;36359;41.556;-8.418;2024-02-21T05:09:45;21.67;;;13.97;;
50429;SDS011;36359;41.556;-8.418;2024-02-21T05:12:11;21.03;;;13.77;;
50429;SDS011;36359;41.556;-8.418;2024-02-21T05:14:37;26.67;;;16.53;;
50429;SDS011;36359;41.556;-8.418;2024-02-21T05:17:03;38.23;;;25.23;;
50429;SDS011;36359;41.556;-8.418;2024-02-21T05:19:29;36.80;;;25.90;;
50429;SDS011;36359;41.556;-8.418;2024-02-21T05:21:55;43.40;;;27.50;;
50429;SDS011;36359;41.556;-8.418;2024-02-21T05:24:21;37.83;;;26.27;;
50429;SDS011;36359;41.556;-8.418;2024-02-21T05:26:47;40.13;;;27.67;;
50429;SDS011;36359;41.556;-8.418;2024-02-21T05:29:13;40.73;;;27.43;;
50429;SDS011;36359;41.556;-8.418;2024-02-21T05:34:17;43.73;;;28.33;;
50429;SDS011;36359;41.556;-8.418;2024-02-21T05:36:43;42.93;;;28.37;;
50429;SDS011;36359;41.556;-8.418;2024-02-21T05:39:09;42.63;;;27.03;;
50429;SDS011;36359;41.556;-8.418;2024-02-21T05:41:35;41.97;;;27.00;;
50429;SDS011;36359;41.556;-8.418;2024-02-21T05:44:01;40.60;;;26.33;;
50429;SDS011;36359;41.556;-8.418;2024-02-21T05:46:27;37.50;;;26.13;;
50429;SDS011;36359;41.556;-8.418;2024-02-21T05:48:53;36.90;;;24.13;;
50429;SDS011;36359;41.556;-8.418;2024-02-21T05:51:19;39.13;;;25.53;;
50429;SDS011;36359;41.556;-8.418;2024-02-21T05:53:44;33.37;;;22.40;;
50429;SDS011;36359;41.556;-8.418;2024-02-21T05:56:10;35.80;;;24.63;;
50429;SDS011;36359;41.556;-8.418;2024-02-21T05:58:37;33.87;;;24.20;;
50429;SDS011;36359;41.556;-8.418;2024-02-21T06:01:03;40.30;;;24.20;;
50429;SDS011;36359;41.556;-8.418;2024-02-21T06:03:29;35.63;;;24.23;;
50429;SDS011;36359;41.556;-8.418;2024-02-21T06:05:55;33.33;;;23.33;;
50429;SDS011;36359;41.556;-8.418;2024-02-21T06:08:21;30.30;;;20.30;;
50429;SDS011;36359;41.556;-8.418;2024-02-21T06:10:47;32.23;;;19.90;;
50429;SDS011;36359;41.556;-8.418;2024-02-21T06:13:19;30.53;;;19.43;;
50429;SDS011;36359;41.556;-8.418;2024-02-21T06:15:46;28.17;;;18.60;;
50429;SDS011;36359;41.556;-8.418;2024-02-21T06:18:12;29.93;;;18.60;;
50429;SDS011;36359;41.556;-8.418;2024-02-21T06:20:38;31.90;;;19.60;;
50429;SDS011;36359;41.556;-8.418;2024-02-21T06:23:07;26.50;;;17.77;;
50429;SDS011;36359;41.556;-8.418;2024-02-21T06:25:33;26.07;;;17.10;;
50429;SDS011;36359;41.556;-8.418;2024-02-21T06:27:59;30.97;;;17.47;;
50429;SDS011;36359;41.556;-8.418;2024-02-21T06:30:24;24.30;;;16.27;;
50429;SDS011;36359;41.556;-8.418;2024-02-21T06:32:50;25.00;;;16.37;;
50429;SDS011;36359;41.556;-8.418;2024-02-21T06:35:16;35.33;;;23.03;;
50429;SDS011;36359;41.556;-8.418;2024-02-21T06:37:42;37.50;;;25.07;;
50429;SDS011;36359;41.556;-8.418;2024-02-21T06:40:08;38.70;;;27.53;;
50429;SDS011;36359;41.556;-8.418;2024-02-21T06:42:34;40.07;;;26.00;;
50429;SDS011;36359;41.556;-8.418;2024-02-21T06:44:59;41.27;;;26.80;;
50429;SDS011;36359;41.556;-8.418;2024-02-21T06:47:25;45.60;;;28.93;;
50429;SDS011;36359;41.556;-8.418;2024-02-21T06:49:51;41.73;;;28.07;;
50429;SDS011;36359;41.556;-8.418;2024-02-21T06:52:19;40.43;;;26.60;;
50429;SDS011;36359;41.556;-8.418;2024-02-21T06:54:48;36.57;;;27.13;;
50429;SDS011;36359;41.556;-8.418;2024-02-21T06:57:14;40.20;;;26.37;;
50429;SDS011;36359;41.556;-8.418;2024-02-21T06:59:41;41.63;;;26.77;;
50429;SDS011;36359;41.556;-8.418;2024-02-21T07:02:07;35.03;;;24.33;;
50429;SDS011;36359;41.556;-8.418;2024-02-21T07:04:33;36.13;;;23.07;;
50429;SDS011;36359;41.556;-8.418;2024-02-21T07:06:59;33.93;;;23.20;;
50429;SDS011;36359;41.556;-8.418;2024-02-21T07:09:25;32.43;;;21.60;;
50429;SDS011;36359;41.556;-8.418;2024-02-21T07:11:51;33.77;;;21.80;;
50429;SDS011;36359;41.556;-8.418;2024-02-21T07:14:17;34.63;;;23.60;;
50429;SDS011;36359;41.556;-8.418;2024-02-21T07:16:43;35.40;;;22.90;;
50429;SDS011;36359;41.556;-8.418;2024-02-21T07:19:09;34.13;;;20.93;;
50429;SDS011;36359;41.556;-8.418;2024-02-21T07:21:35;31.10;;;20.00;;
50429;SDS011;36359;41.556;-8.418;2024-02-21T07:24:03;29.33;;;18.77;;
50429;SDS011;36359;41.556;-8.418;2024-02-21T07:26:31;31.43;;;20.53;;
50429;SDS011;36359;41.556;-8.418;2024-02-21T07:28:56;25.53;;;17.73;;
50429;SDS011;36359;41.556;-8.418;2024-02-21T07:31:22;32.63;;;18.47;;
50429;SDS011;36359;41.556;-8.418;2024-02-21T07:33:48;24.37;;;16.87;;
50429;SDS011;36359;41.556;-8.418;2024-02-21T07:36:14;24.60;;;15.40;;
50429;SDS011;36359;41.556;-8.418;2024-02-21T07:38:42;21.27;;;14.33;;
50429;SDS011;36359;41.556;-8.418;2024-02-21T07:41:08;19.03;;;12.33;;
50429;SDS011;36359;41.556;-8.418;2024-02-21T07:43:33;19.43;;;12.07;;
50429;SDS011;36359;41.556;-8.418;2024-02-21T07:45:59;15.73;;;11.03;;
50429;SDS011;36359;41.556;-8.418;2024-02-21T07:48:25;18.90;;;12.23;;
50429;SDS011;36359;41.556;-8.418;2024-02-21T07:50:52;31.47;;;16.77;;
50429;SDS011;36359;41.556;-8.418;2024-02-21T07:53:17;31.43;;;16.97;;
50429;SDS011;36359;41.556;-8.418;2024-02-21T07:55:45;29.67;;;16.10;;
50429;SDS011;36359;41.556;-8.418;2024-02-21T07:58:10;24.20;;;14.67;;
50429;SDS011;36359;41.556;-8.418;2024-02-21T08:00:36;26.73;;;16.47;;
50429;SDS011;36359;41.556;-8.418;2024-02-21T08:03:02;26.80;;;16.47;;
50429;SDS011;36359;41.556;-8.418;2024-02-21T08:05:28;29.30;;;15.50;;
50429;SDS011;36359;41.556;-8.418;2024-02-21T08:07:55;26.80;;;15.10;;
50429;SDS011;36359;41.556;-8.418;2024-02-21T08:10:21;31.87;;;16.13;;
50429;SDS011;36359;41.556;-8.418;2024-02-21T08:12:48;32.27;;;15.17;;
50429;SDS011;36359;41.556;-8.418;2024-02-21T08:15:14;37.77;;;15.77;;
50429;SDS011;36359;41.556;-8.418;2024-02-21T08:17:41;42.10;;;19.83;;
50429;SDS011;36359;41.556;-8.418;2024-02-21T08:20:07;40.60;;;18.57;;
50429;SDS011;36359;41.556;-8.418;2024-02-21T08:22:33;45.03;;;19.93;;
50429;SDS011;36359;41.556;-8.418;2024-02-21T08:24:59;50.10;;;19.20;;
50429;SDS011;36359;41.556;-8.418;2024-02-21T08:27:24;42.97;;;16.37;;
50429;SDS011;36359;41.556;-8.418;2024-02-21T08:29:50;23.20;;;13.77;;
50429;SDS011;36359;41.556;-8.418;2024-02-21T08:32:16;18.70;;;12.70;;
50429;SDS011;36359;41.556;-8.418;2024-02-21T08:34:42;23.20;;;13.83;;
50429;SDS011;36359;41.556;-8.418;2024-02-21T08:37:07;20.13;;;13.77;;
50429;SDS011;36359;41.556;-8.418;2024-02-21T08:39:33;21.83;;;12.97;;
50429;SDS011;36359;41.556;-8.418;2024-02-21T08:41:59;18.90;;;13.23;;
50429;SDS011;36359;41.556;-8.418;2024-02-21T08:44:25;20.37;;;12.40;;
50429;SDS011;36359;41.556;-8.418;2024-02-21T08:46:53;23.60;;;12.60;;
50429;SDS011;36359;41.556;-8.418;2024-02-21T08:49:18;17.65;;;12.00;;
50429;SDS011;36359;41.556;-8.418;2024-02-21T08:51:44;17.88;;;10.20;;
50429;SDS011;36359;41.556;-8.418;2024-02-21T08:54:11;20.23;;;12.68;;
50429;SDS011;36359;41.556;-8.418;2024-02-21T08:56:37;21.42;;;13.60;;
50429;SDS011;36359;41.556;-8.418;2024-02-21T08:59:03;19.85;;;12.23;;
50429;SDS011;36359;41.556;-8.418;2024-02-21T09:01:29;18.88;;;12.63;;
50429;SDS011;36359;41.556;-8.418;2024-02-21T09:03:54;20.15;;;12.82;;
50429;SDS011;36359;41.556;-8.418;2024-02-21T09:06:21;23.15;;;12.88;;
50429;SDS011;36359;41.556;-8.418;2024-02-21T09:08:47;18.77;;;12.00;;
50429;SDS011;36359;41.556;-8.418;2024-02-21T09:11:14;32.05;;;20.90;;
50429;SDS011;36359;41.556;-8.418;2024-02-21T09:13:40;19.73;;;13.25;;
50429;SDS011;36359;41.556;-8.418;2024-02-21T09:16:06;25.42;;;17.35;;
50429;SDS011;36359;41.556;-8.418;2024-02-21T09:18:31;32.50;;;20.27;;
50429;SDS011;36359;41.556;-8.418;2024-02-21T09:20:57;39.17;;;21.90;;
50429;SDS011;36359;41.556;-8.418;2024-02-21T09:23:26;41.60;;;23.90;;
50429;SDS011;36359;41.556;-8.418;2024-02-21T09:25:52;30.55;;;21.75;;
50429;SDS011;36359;41.556;-8.418;2024-02-21T09:28:18;31.48;;;22.35;;
50429;SDS011;36359;41.556;-8.418;2024-02-21T09:30:44;36.05;;;23.75;;
50429;SDS011;36359;41.556;-8.418;2024-02-21T09:33:10;38.17;;;23.52;;
50429;SDS011;36359;41.556;-8.418;2024-02-21T09:35:36;38.10;;;29.05;;
50429;SDS011;36359;41.556;-8.418;2024-02-21T09:38:02;34.00;;;27.65;;
50429;SDS011;36359;41.556;-8.418;2024-02-21T09:40:28;36.70;;;25.52;;
50429;SDS011;36359;41.556;-8.418;2024-02-21T09:43:03;34.53;;;24.73;;
50429;SDS011;36359;41.556;-8.418;2024-02-21T09:45:33;37.38;;;25.42;;
50429;SDS011;36359;41.556;-8.418;2024-02-21T09:50:31;45.30;;;25.83;;
50429;SDS011;36359;41.556;-8.418;2024-02-21T09:52:59;28.83;;;24.53;;
50429;SDS011;36359;41.556;-8.418;2024-02-21T09:55:28;30.45;;;21.55;;
50429;SDS011;36359;41.556;-8.418;2024-02-21T09:57:57;40.40;;;27.27;;
50429;SDS011;36359;41.556;-8.418;2024-02-21T10:00:24;44.10;;;23.13;;
50429;SDS011;36359;41.556;-8.418;2024-02-21T10:02:50;45.13;;;21.83;;
50429;SDS011;36359;41.556;-8.418;2024-02-21T10:05:16;42.50;;;21.42;;
50429;SDS011;36359;41.556;-8.418;2024-02-21T10:07:43;32.17;;;19.13;;
50429;SDS011;36359;41.556;-8.418;2024-02-21T10:10:09;30.13;;;18.90;;
50429;SDS011;36359;41.556;-8.418;2024-02-21T10:12:35;42.15;;;21.10;;
50429;SDS011;36359;41.556;-8.418;2024-02-21T10:15:05;34.47;;;18.95;;
50429;SDS011;36359;41.556;-8.418;2024-02-21T10:17:34;38.53;;;17.07;;
50429;SDS011;36359;41.556;-8.418;2024-02-21T10:20:10;30.08;;;18.75;;
50429;SDS011;36359;41.556;-8.418;2024-02-21T10:22:37;35.53;;;18.10;;
50429;SDS011;36359;41.556;-8.418;2024-02-21T10:25:11;26.02;;;17.23;;
50429;SDS011;36359;41.556;-8.418;2024-02-21T10:27:38;32.50;;;17.70;;
50429;SDS011;36359;41.556;-8.418;2024-02-21T10:30:05;31.30;;;17.80;;
50429;SDS011;36359;41.556;-8.418;2024-02-21T10:32:32;33.17;;;18.13;;
50429;SDS011;36359;41.556;-8.418;2024-02-21T10:35:02;34.05;;;18.45;;
50429;SDS011;36359;41.556;-8.418;2024-02-21T10:37:31;34.13;;;18.35;;
50429;SDS011;36359;41.556;-8.418;2024-02-21T10:39:57;32.33;;;17.45;;
50429;SDS011;36359;41.556;-8.418;2024-02-21T10:42:23;28.27;;;16.48;;
50429;SDS011;36359;41.556;-8.418;2024-02-21T10:44:56;39.92;;;20.48;;
50429;SDS011;36359;41.556;-8.418;2024-02-21T10:47:29;44.05;;;28.65;;
50429;SDS011;36359;41.556;-8.418;2024-02-21T10:50:02;34.85;;;24.15;;
50429;SDS011;36359;41.556;-8.418;2024-02-21T10:52:51;31.23;;;22.38;;
50429;SDS011;36359;41.556;-8.418;2024-02-21T10:55:31;30.60;;;20.33;;
50429;SDS011;36359;41.556;-8.418;2024-02-21T10:58:04;26.05;;;18.67;;
50429;SDS011;36359;41.556;-8.418;2024-02-21T11:00:30;25.20;;;19.30;;
50429;SDS011;36359;41.556;-8.418;2024-02-21T11:02:58;31.80;;;21.90;;
50429;SDS011;36359;41.556;-8.418;2024-02-21T11:05:24;31.52;;;22.95;;
50429;SDS011;36359;41.556;-8.418;2024-02-21T11:07:53;34.20;;;23.77;;
50429;SDS011;36359;41.556;-8.418;2024-02-21T11:10:25;26.88;;;18.50;;
50429;SDS011;36359;41.556;-8.418;2024-02-21T11:12:52;36.20;;;25.55;;
50429;SDS011;36359;41.556;-8.418;2024-02-21T11:15:24;35.72;;;25.15;;
50429;SDS011;36359;41.556;-8.418;2024-02-21T11:17:58;25.50;;;18.83;;
50429;SDS011;36359;41.556;-8.418;2024-02-21T11:20:33;40.53;;;28.20;;
50429;SDS011;36359;41.556;-8.418;2024-02-21T11:23:03;39.97;;;27.88;;
50429;SDS011;36359;41.556;-8.418;2024-02-21T11:25:29;40.88;;;26.13;;
50429;SDS011;36359;41.556;-8.418;2024-02-21T11:28:01;40.95;;;24.90;;
50429;SDS011;36359;41.556;-8.418;2024-02-21T11:30:32;31.88;;;22.25;;
50429;SDS011;36359;41.556;-8.418;2024-02-21T11:33:01;35.40;;;23.10;;
50429;SDS011;36359;41.556;-8.418;2024-02-21T11:35:32;33.15;;;20.80;;
50429;SDS011;36359;41.556;-8.418;2024-02-21T11:38:10;27.67;;;18.58;;
50429;SDS011;36359;41.556;-8.418;2024-02-21T11:43:17;35.67;;;22.88;;
50429;SDS011;36359;41.556;-8.418;2024-02-21T11:45:43;34.65;;;20.73;;
50429;SDS011;36359;41.556;-8.418;2024-02-21T11:48:09;40.70;;;26.60;;
50429;SDS011;36359;41.556;-8.418;2024-02-21T11:50:35;35.10;;;20.50;;
50429;SDS011;36359;41.556;-8.418;2024-02-21T11:53:02;42.88;;;29.35;;
50429;SDS011;36359;41.556;-8.418;2024-02-21T11:55:28;54.75;;;35.78;;
50429;SDS011;36359;41.556;-8.418;2024-02-21T11:57:54;48.25;;;34.50;;
50429;SDS011;36359;41.556;-8.418;2024-02-21T12:00:21;61.05;;;40.58;;
50429;SDS011;36359;41.556;-8.418;2024-02-21T12:02:50;64.43;;;42.97;;
50429;SDS011;36359;41.556;-8.418;2024-02-21T12:05:16;53.42;;;34.42;;
50429;SDS011;36359;41.556;-8.418;2024-02-21T12:07:45;56.22;;;34.25;;
50429;SDS011;36359;41.556;-8.418;2024-02-21T12:10:13;40.83;;;26.98;;
50429;SDS011;36359;41.556;-8.418;2024-02-21T12:12:39;47.08;;;31.02;;
50429;SDS011;36359;41.556;-8.418;2024-02-21T12:15:05;49.40;;;33.05;;
50429;SDS011;36359;41.556;-8.418;2024-02-21T12:17:33;47.60;;;34.03;;
50429;SDS011;36359;41.556;-8.418;2024-02-21T12:20:00;50.90;;;34.55;;
50429;SDS011;36359;41.556;-8.418;2024-02-21T12:22:35;61.70;;;35.78;;
50429;SDS011;36359;41.556;-8.418;2024-02-21T12:25:04;49.63;;;32.50;;
50429;SDS011;36359;41.556;-8.418;2024-02-21T12:27:40;33.97;;;22.15;;
50429;SDS011;36359;41.556;-8.418;2024-02-21T12:30:06;33.95;;;22.90;;
50429;SDS011;36359;41.556;-8.418;2024-02-21T12:32:35;37.65;;;23.25;;
50429;SDS011;36359;41.556;-8.418;2024-02-21T12:35:02;34.80;;;24.05;;
50429;SDS011;36359;41.556;-8.418;2024-02-21T12:37:31;34.80;;;22.98;;
50429;SDS011;36359;41.556;-8.418;2024-02-21T12:39:58;43.65;;;27.48;;
50429;SDS011;36359;41.556;-8.418;2024-02-21T12:42:24;37.45;;;22.27;;
50429;SDS011;36359;41.556;-8.418;2024-02-21T12:44:51;32.97;;;22.23;;
50429;SDS011;36359;41.556;-8.418;2024-02-21T12:47:20;31.40;;;19.60;;
50429;SDS011;36359;41.556;-8.418;2024-02-21T12:49:49;29.17;;;20.27;;
50429;SDS011;36359;41.556;-8.418;2024-02-21T12:52:15;37.40;;;22.55;;
50429;SDS011;36359;41.556;-8.418;2024-02-21T12:54:41;27.35;;;18.55;;
50429;SDS011;36359;41.556;-8.418;2024-02-21T12:57:08;31.17;;;19.17;;
50429;SDS011;36359;41.556;-8.418;2024-02-21T12:59:33;34.83;;;20.35;;
50429;SDS011;36359;41.556;-8.418;2024-02-21T13:01:59;32.20;;;21.02;;
50429;SDS011;36359;41.556;-8.418;2024-02-21T13:04:25;28.08;;;18.23;;
50429;SDS011;36359;41.556;-8.418;2024-02-21T13:06:51;30.40;;;17.60;;
50429;SDS011;36359;41.556;-8.418;2024-02-21T13:09:17;26.52;;;16.52;;
50429;SDS011;36359;41.556;-8.418;2024-02-21T13:11:43;25.63;;;14.60;;
50429;SDS011;36359;41.556;-8.418;2024-02-21T13:14:12;26.83;;;15.15;;
50429;SDS011;36359;41.556;-8.418;2024-02-21T13:16:38;24.77;;;15.75;;
50429;SDS011;36359;41.556;-8.418;2024-02-21T13:19:06;27.27;;;15.65;;
50429;SDS011;36359;41.556;-8.418;2024-02-21T13:21:35;25.38;;;14.45;;
50429;SDS011;36359;41.556;-8.418;2024-02-21T13:24:02;23.67;;;13.38;;
50429;SDS011;36359;41.556;-8.418;2024-02-21T13:26:28;21.45;;;13.65;;
50429;SDS011;36359;41.556;-8.418;2024-02-21T13:28:54;25.90;;;16.35;;
50429;SDS011;36359;41.556;-8.418;2024-02-21T13:31:20;24.30;;;14.70;;
50429;SDS011;36359;41.556;-8.418;2024-02-21T13:33:46;17.60;;;13.23;;
50429;SDS011;36359;41.556;-8.418;2024-02-21T13:36:12;21.13;;;13.68;;
50429;SDS011;36359;41.556;-8.418;2024-02-21T13:38:38;25.25;;;14.35;;
50429;SDS011;36359;41.556;-8.418;2024-02-21T13:41:07;21.23;;;14.63;;
50429;SDS011;36359;41.556;-8.418;2024-02-21T13:43:33;23.27;;;14.88;;
50429;SDS011;36359;41.556;-8.418;2024-02-21T13:46:00;33.42;;;19.67;;
50429;SDS011;36359;41.556;-8.418;2024-02-21T13:48:31;26.80;;;18.40;;
50429;SDS011;36359;41.556;-8.418;2024-02-21T13:50:58;24.92;;;16.02;;
50429;SDS011;36359;41.556;-8.418;2024-02-21T13:53:24;24.42;;;17.35;;
50429;SDS011;36359;41.556;-8.418;2024-02-21T13:55:49;26.65;;;15.65;;
50429;SDS011;36359;41.556;-8.418;2024-02-21T13:58:16;31.42;;;18.00;;
50429;SDS011;36359;41.556;-8.418;2024-02-21T14:00:42;32.05;;;20.75;;
50429;SDS011;36359;41.556;-8.418;2024-02-21T14:03:08;29.08;;;20.05;;
50429;SDS011;36359;41.556;-8.418;2024-02-21T14:05:35;32.22;;;23.15;;
50429;SDS011;36359;41.556;-8.418;2024-02-21T14:08:00;35.58;;;24.33;;
50429;SDS011;36359;41.556;-8.418;2024-02-21T14:10:26;35.42;;;23.90;;
50429;SDS011;36359;41.556;-8.418;2024-02-21T14:12:53;28.67;;;20.77;;
50429;SDS011;36359;41.556;-8.418;2024-02-21T14:15:18;31.45;;;20.65;;